createdAt,value
2019-03-25T00:00:11.788Z,1017.57
2019-03-25T00:01:11.771Z,1017.52
2019-03-25T00:02:11.763Z,1017.54
2019-03-25T00:03:11.787Z,1017.57
2019-03-25T00:04:11.756Z,1017.52
2019-03-25T00:05:11.752Z,1017.55
2019-03-25T00:06:11.722Z,1017.50
2019-03-25T00:07:11.707Z,1017.54
2019-03-25T00:08:11.709Z,1017.52
2019-03-25T00:09:11.715Z,1017.43
2019-03-25T00:10:11.681Z,1017.36
2019-03-25T00:11:11.663Z,1017.37
2019-03-25T00:12:11.651Z,1017.45
2019-03-25T00:13:11.649Z,1017.43
2019-03-25T00:14:11.640Z,1017.40
2019-03-25T00:15:11.641Z,1017.34
2019-03-25T00:16:11.638Z,1017.38
2019-03-25T00:17:11.597Z,1017.34
2019-03-25T00:18:11.593Z,1017.31
2019-03-25T00:19:11.590Z,1017.29
2019-03-25T00:20:11.590Z,1017.29
2019-03-25T00:21:11.554Z,1017.26
2019-03-25T00:22:11.581Z,1017.26
2019-03-25T00:23:11.537Z,1017.27
2019-03-25T00:24:11.517Z,1017.24
2019-03-25T00:25:11.528Z,1017.21
2019-03-25T00:26:11.504Z,1017.20
2019-03-25T00:27:11.510Z,1017.18
2019-03-25T00:28:13.695Z,1017.15
2019-03-25T00:29:11.469Z,1017.10
2019-03-25T00:30:11.491Z,1017.10
2019-03-25T00:31:11.464Z,1017.07
2019-03-25T00:32:11.500Z,1016.97
2019-03-25T00:33:11.429Z,1016.99
2019-03-25T00:34:11.415Z,1016.95
2019-03-25T00:35:11.408Z,1016.93
2019-03-25T00:36:11.414Z,1016.91
2019-03-25T00:37:11.417Z,1016.93
2019-03-25T00:38:11.367Z,1016.88
2019-03-25T00:39:11.364Z,1016.85
2019-03-25T00:40:11.356Z,1016.87
2019-03-25T00:41:11.367Z,1016.82
2019-03-25T00:42:11.332Z,1016.83
2019-03-25T00:43:11.323Z,1016.77
2019-03-25T00:44:11.312Z,1016.77
2019-03-25T00:45:11.293Z,1016.78
2019-03-25T00:46:11.307Z,1016.76
2019-03-25T00:47:11.317Z,1016.81
2019-03-25T00:48:18.811Z,1016.79
2019-03-25T00:49:11.255Z,1016.74
2019-03-25T00:50:11.235Z,1016.76
2019-03-25T00:51:11.257Z,1016.70
2019-03-25T00:52:11.219Z,1016.69
2019-03-25T00:53:32.218Z,1016.73
2019-03-25T00:54:11.227Z,1016.77
2019-03-25T00:55:11.190Z,1016.71
2019-03-25T00:56:11.204Z,1016.68
2019-03-25T00:57:11.187Z,1016.64
2019-03-25T00:58:11.153Z,1016.69
2019-03-25T00:59:11.148Z,1016.64
2019-03-25T01:00:11.147Z,1016.64
2019-03-25T01:01:11.167Z,1016.61
2019-03-25T01:02:11.135Z,1016.60
2019-03-25T01:03:11.104Z,1016.64
2019-03-25T01:04:11.094Z,1016.63
2019-03-25T01:05:11.175Z,1016.56
2019-03-25T01:06:11.074Z,1016.55
2019-03-25T01:07:11.078Z,1016.57
2019-03-25T01:08:11.051Z,1016.53
2019-03-25T01:09:11.078Z,1016.52
2019-03-25T01:10:11.034Z,1016.59
2019-03-25T01:11:11.022Z,1016.54
2019-03-25T01:12:11.024Z,1016.55
2019-03-25T01:13:11.020Z,1016.55
2019-03-25T01:14:10.977Z,1016.53
2019-03-25T01:15:10.969Z,1016.51
2019-03-25T01:16:10.960Z,1016.59
2019-03-25T01:17:10.972Z,1016.51
2019-03-25T01:18:16.834Z,1016.52
2019-03-25T01:19:11.943Z,1016.51
2019-03-25T01:20:10.949Z,1016.51
2019-03-25T01:21:10.906Z,1016.47
2019-03-25T01:22:10.919Z,1016.45
2019-03-25T01:23:10.903Z,1016.37
2019-03-25T01:24:10.918Z,1016.35
2019-03-25T01:25:10.858Z,1016.42
2019-03-25T01:26:10.864Z,1016.40
2019-03-25T01:27:10.846Z,1016.38
2019-03-25T01:28:10.850Z,1016.43
2019-03-25T01:29:10.818Z,1016.35
2019-03-25T01:30:10.836Z,1016.37
2019-03-25T01:31:10.800Z,1016.33
2019-03-25T01:32:10.787Z,1016.32
2019-03-25T01:33:19.421Z,1016.32
2019-03-25T01:34:10.762Z,1016.35
2019-03-25T01:35:10.754Z,1016.30
2019-03-25T01:36:10.742Z,1016.26
2019-03-25T01:37:10.732Z,1016.23
2019-03-25T01:38:10.744Z,1016.22
2019-03-25T01:39:10.718Z,1016.15
2019-03-25T01:40:10.701Z,1016.14
2019-03-25T01:41:10.685Z,1016.18
2019-03-25T01:42:11.585Z,1016.08
2019-03-25T01:43:10.675Z,1016.08
2019-03-25T01:44:10.676Z,1016.02
2019-03-25T01:45:10.646Z,1016.02
2019-03-25T01:46:10.667Z,1016.06
2019-03-25T01:47:10.625Z,1015.97
2019-03-25T01:48:10.618Z,1015.97
2019-03-25T01:49:10.646Z,1016.01
2019-03-25T01:50:10.593Z,1016.01
2019-03-25T01:51:18.126Z,1016.00
2019-03-25T01:52:18.116Z,1015.94
2019-03-25T01:53:18.104Z,1015.95
2019-03-25T01:54:10.549Z,1015.93
2019-03-25T01:55:13.605Z,1015.88
2019-03-25T01:56:10.527Z,1015.90
2019-03-25T01:57:10.512Z,1015.86
2019-03-25T01:58:10.513Z,1015.84
2019-03-25T01:59:10.491Z,1015.87
2019-03-25T02:00:10.523Z,1015.78
2019-03-25T02:01:10.478Z,1015.86
2019-03-25T02:02:10.460Z,1015.80
2019-03-25T02:03:10.457Z,1015.83
2019-03-25T02:04:10.443Z,1015.78
2019-03-25T02:05:10.460Z,1015.82
2019-03-25T02:06:10.417Z,1015.77
2019-03-25T02:07:10.412Z,1015.73
2019-03-25T02:08:10.408Z,1015.75
2019-03-25T02:09:10.389Z,1015.71
2019-03-25T02:10:10.428Z,1015.70
2019-03-25T02:11:10.376Z,1015.66
2019-03-25T02:12:10.369Z,1015.69
2019-03-25T02:13:10.349Z,1015.61
2019-03-25T02:14:10.332Z,1015.60
2019-03-25T02:15:10.318Z,1015.61
2019-03-25T02:16:10.356Z,1015.51
2019-03-25T02:17:10.296Z,1015.56
2019-03-25T02:18:10.288Z,1015.56
2019-03-25T02:19:10.308Z,1015.55
2019-03-25T02:20:10.267Z,1015.53
2019-03-25T02:21:10.348Z,1015.51
2019-03-25T02:22:10.251Z,1015.47
2019-03-25T02:23:10.391Z,1015.47
2019-03-25T02:24:10.227Z,1015.44
2019-03-25T02:25:10.215Z,1015.42
2019-03-25T02:26:10.204Z,1015.44
2019-03-25T02:27:10.242Z,1015.46
2019-03-25T02:28:10.189Z,1015.47
2019-03-25T02:29:10.169Z,1015.41
2019-03-25T02:30:10.161Z,1015.45
2019-03-25T02:31:10.147Z,1015.46
2019-03-25T02:32:10.176Z,1015.42
2019-03-25T02:33:10.132Z,1015.39
2019-03-25T02:34:10.120Z,1015.35
2019-03-25T02:35:10.110Z,1015.40
2019-03-25T02:36:10.101Z,1015.36
2019-03-25T02:37:10.105Z,1015.37
2019-03-25T02:38:10.076Z,1015.31
2019-03-25T02:39:10.062Z,1015.30
2019-03-25T02:40:10.064Z,1015.32
2019-03-25T02:41:10.047Z,1015.30
2019-03-25T02:42:10.074Z,1015.34
2019-03-25T02:43:10.031Z,1015.27
2019-03-25T02:44:10.026Z,1015.35
2019-03-25T02:45:09.997Z,1015.26
2019-03-25T02:46:09.994Z,1015.28
2019-03-25T02:47:09.983Z,1015.26
2019-03-25T02:48:09.988Z,1015.22
2019-03-25T02:49:09.974Z,1015.19
2019-03-25T02:50:09.981Z,1015.20
2019-03-25T02:51:09.945Z,1015.15
2019-03-25T02:52:09.924Z,1015.17
2019-03-25T02:53:09.938Z,1015.18
2019-03-25T02:54:09.970Z,1015.10
2019-03-25T02:55:09.890Z,1015.10
2019-03-25T02:56:17.419Z,1015.08
2019-03-25T02:57:17.415Z,1015.12
2019-03-25T02:58:18.634Z,1015.14
2019-03-25T02:59:09.847Z,1015.09
2019-03-25T03:00:09.838Z,1015.05
2019-03-25T03:01:09.822Z,1015.07
2019-03-25T03:02:09.814Z,1015.09
2019-03-25T03:03:09.810Z,1015.10
2019-03-25T03:04:09.813Z,1015.06
2019-03-25T03:05:09.787Z,1015.07
2019-03-25T03:06:09.781Z,1015.12
2019-03-25T03:07:09.759Z,1015.05
2019-03-25T03:08:09.761Z,1015.11
2019-03-25T03:09:09.761Z,1015.12
2019-03-25T03:10:09.748Z,1015.01
2019-03-25T03:11:09.729Z,1015.00
2019-03-25T03:12:09.711Z,1015.00
2019-03-25T03:13:09.693Z,1014.97
2019-03-25T03:14:09.715Z,1014.94
2019-03-25T03:15:09.712Z,1014.91
2019-03-25T03:16:09.675Z,1014.95
2019-03-25T03:17:09.650Z,1014.90
2019-03-25T03:18:09.644Z,1014.88
2019-03-25T03:19:09.634Z,1014.86
2019-03-25T03:20:09.652Z,1014.89
2019-03-25T03:21:09.615Z,1014.88
2019-03-25T03:22:09.628Z,1014.83
2019-03-25T03:23:09.639Z,1014.81
2019-03-25T03:24:09.575Z,1014.80
2019-03-25T03:25:09.585Z,1014.80
2019-03-25T03:26:09.625Z,1014.76
2019-03-25T03:27:09.541Z,1014.80
2019-03-25T03:28:09.556Z,1014.74
2019-03-25T03:29:09.541Z,1014.75
2019-03-25T03:30:09.557Z,1014.71
2019-03-25T03:31:09.502Z,1014.68
2019-03-25T03:32:09.490Z,1014.73
2019-03-25T03:33:09.500Z,1014.66
2019-03-25T03:34:09.469Z,1014.68
2019-03-25T03:35:09.459Z,1014.59
2019-03-25T03:36:09.465Z,1014.67
2019-03-25T03:37:09.434Z,1014.65
2019-03-25T03:38:09.511Z,1014.61
2019-03-25T03:39:09.416Z,1014.62
2019-03-25T03:40:09.409Z,1014.58
2019-03-25T03:41:09.420Z,1014.57
2019-03-25T03:42:09.382Z,1014.62
2019-03-25T03:43:09.370Z,1014.50
2019-03-25T03:44:09.369Z,1014.55
2019-03-25T03:45:09.355Z,1014.55
2019-03-25T03:46:09.367Z,1014.51
2019-03-25T03:47:09.324Z,1014.44
2019-03-25T03:48:09.317Z,1014.40
2019-03-25T03:49:09.312Z,1014.47
2019-03-25T03:50:16.830Z,1014.43
2019-03-25T03:51:18.111Z,1014.44
2019-03-25T03:52:09.271Z,1014.43
2019-03-25T03:53:09.259Z,1014.43
2019-03-25T03:54:09.246Z,1014.45
2019-03-25T03:55:09.242Z,1014.38
2019-03-25T03:56:13.599Z,1014.40
2019-03-25T03:57:09.374Z,1014.37
2019-03-25T03:58:09.213Z,1014.37
2019-03-25T03:59:09.215Z,1014.29
2019-03-25T04:00:09.182Z,1014.26
2019-03-25T04:01:09.212Z,1014.35
2019-03-25T04:02:09.205Z,1014.31
2019-03-25T04:03:09.150Z,1014.31
2019-03-25T04:04:09.145Z,1014.33
2019-03-25T04:05:09.127Z,1014.28
2019-03-25T04:06:09.117Z,1014.33
2019-03-25T04:07:09.127Z,1014.31
2019-03-25T04:08:09.116Z,1014.34
2019-03-25T04:09:09.086Z,1014.30
2019-03-25T04:10:09.079Z,1014.36
2019-03-25T04:11:09.068Z,1014.27
2019-03-25T04:12:09.070Z,1014.38
2019-03-25T04:13:09.067Z,1014.26
2019-03-25T04:14:09.049Z,1014.27
2019-03-25T04:15:09.021Z,1014.33
2019-03-25T04:16:09.009Z,1014.34
2019-03-25T04:17:09.016Z,1014.30
2019-03-25T04:18:09.014Z,1014.26
2019-03-25T04:19:08.981Z,1014.39
2019-03-25T04:20:08.971Z,1014.26
2019-03-25T04:21:08.959Z,1014.28
2019-03-25T04:22:08.962Z,1014.27
2019-03-25T04:23:08.956Z,1014.26
2019-03-25T04:24:08.922Z,1014.21
2019-03-25T04:25:08.925Z,1014.18
2019-03-25T04:26:08.932Z,1014.23
2019-03-25T04:27:08.889Z,1014.31
2019-03-25T04:28:08.902Z,1014.32
2019-03-25T04:29:08.867Z,1014.39
2019-03-25T04:30:08.875Z,1014.25
2019-03-25T04:31:08.850Z,1014.31
2019-03-25T04:32:08.840Z,1014.28
2019-03-25T04:33:08.857Z,1014.22
2019-03-25T04:34:08.820Z,1014.33
2019-03-25T04:35:08.803Z,1014.33
2019-03-25T04:36:08.792Z,1014.30
2019-03-25T04:37:08.803Z,1014.27
2019-03-25T04:38:08.772Z,1014.37
2019-03-25T04:39:08.780Z,1014.28
2019-03-25T04:40:08.755Z,1014.27
2019-03-25T04:41:08.739Z,1014.36
2019-03-25T04:42:08.737Z,1014.31
2019-03-25T04:43:08.724Z,1014.38
2019-03-25T04:44:08.747Z,1014.36
2019-03-25T04:45:08.693Z,1014.41
2019-03-25T04:46:08.685Z,1014.40
2019-03-25T04:47:08.674Z,1014.40
2019-03-25T04:48:08.664Z,1014.37
2019-03-25T04:49:08.704Z,1014.48
2019-03-25T04:50:08.649Z,1014.44
2019-03-25T04:51:08.642Z,1014.44
2019-03-25T04:52:08.618Z,1014.50
2019-03-25T04:53:08.613Z,1014.48
2019-03-25T04:54:08.653Z,1014.45
2019-03-25T04:55:08.608Z,1014.44
2019-03-25T04:56:08.579Z,1014.51
2019-03-25T04:57:08.564Z,1014.44
2019-03-25T04:58:08.551Z,1014.53
2019-03-25T04:59:08.569Z,1014.44
2019-03-25T05:00:08.552Z,1014.54
2019-03-25T05:01:08.521Z,1014.50
2019-03-25T05:02:08.513Z,1014.46
2019-03-25T05:03:16.051Z,1014.53
2019-03-25T05:04:08.499Z,1014.40
2019-03-25T05:05:08.499Z,1014.55
2019-03-25T05:06:08.465Z,1014.54
2019-03-25T05:07:08.453Z,1014.56
2019-03-25T05:08:08.450Z,1014.54
2019-03-25T05:09:08.432Z,1014.52
2019-03-25T05:10:08.506Z,1014.48
2019-03-25T05:11:08.423Z,1014.49
2019-03-25T05:12:08.401Z,1014.50
2019-03-25T05:13:08.406Z,1014.64
2019-03-25T05:14:08.390Z,1014.51
2019-03-25T05:15:08.371Z,1014.62
2019-03-25T05:16:08.383Z,1014.53
2019-03-25T05:17:08.348Z,1014.44
2019-03-25T05:18:08.343Z,1014.52
2019-03-25T05:19:08.330Z,1014.47
2019-03-25T05:20:08.331Z,1014.59
2019-03-25T05:21:08.334Z,1014.56
2019-03-25T05:22:08.296Z,1014.71
2019-03-25T05:23:08.307Z,1014.66
2019-03-25T05:24:08.274Z,1014.68
2019-03-25T05:25:08.262Z,1014.68
2019-03-25T05:26:08.305Z,1014.68
2019-03-25T05:27:08.242Z,1014.66
2019-03-25T05:28:08.239Z,1014.65
2019-03-25T05:29:08.219Z,1014.65
2019-03-25T05:30:08.206Z,1014.63
2019-03-25T05:31:08.217Z,1014.64
2019-03-25T05:32:08.183Z,1014.58
2019-03-25T05:33:08.518Z,1014.64
2019-03-25T05:34:08.175Z,1014.64
2019-03-25T05:35:08.152Z,1014.62
2019-03-25T05:36:08.142Z,1014.61
2019-03-25T05:37:08.150Z,1014.62
2019-03-25T05:38:08.118Z,1014.63
2019-03-25T05:39:08.111Z,1014.63
2019-03-25T05:40:08.103Z,1014.60
2019-03-25T05:41:08.096Z,1014.61
2019-03-25T05:42:08.094Z,1014.60
2019-03-25T05:43:08.063Z,1014.58
2019-03-25T05:44:08.056Z,1014.59
2019-03-25T05:45:08.132Z,1014.65
2019-03-25T05:46:08.042Z,1014.60
2019-03-25T05:47:08.049Z,1014.65
2019-03-25T05:48:08.136Z,1014.62
2019-03-25T05:49:08.124Z,1014.62
2019-03-25T05:50:09.216Z,1014.65
2019-03-25T05:51:08.083Z,1014.63
2019-03-25T05:52:08.014Z,1014.63
2019-03-25T05:53:07.995Z,1014.64
2019-03-25T05:54:08.059Z,1014.63
2019-03-25T05:55:07.939Z,1014.66
2019-03-25T05:56:07.955Z,1014.62
2019-03-25T05:57:07.974Z,1014.64
2019-03-25T05:58:07.950Z,1014.68
2019-03-25T05:59:07.945Z,1014.68
2019-03-25T06:00:07.903Z,1014.68
2019-03-25T06:01:07.870Z,1014.69
2019-03-25T06:02:07.876Z,1014.71
2019-03-25T06:03:07.882Z,1014.76
2019-03-25T06:04:07.868Z,1014.73
2019-03-25T06:05:07.831Z,1014.73
2019-03-25T06:06:07.814Z,1014.70
2019-03-25T06:07:07.800Z,1014.79
2019-03-25T06:08:16.641Z,1014.82
2019-03-25T06:09:15.434Z,1014.79
2019-03-25T06:10:07.776Z,1014.79
2019-03-25T06:11:15.369Z,1014.76
2019-03-25T06:12:07.818Z,1014.74
2019-03-25T06:13:07.763Z,1014.74
2019-03-25T06:14:07.730Z,1014.79
2019-03-25T06:15:07.718Z,1014.79
2019-03-25T06:16:07.731Z,1014.84
2019-03-25T06:17:07.690Z,1014.74
2019-03-25T06:18:07.688Z,1014.84
2019-03-25T06:19:07.689Z,1014.78
2019-03-25T06:20:07.654Z,1014.74
2019-03-25T06:21:07.644Z,1014.75
2019-03-25T06:22:07.643Z,1014.76
2019-03-25T06:23:07.626Z,1014.77
2019-03-25T06:24:08.715Z,1014.90
2019-03-25T06:25:07.609Z,1014.81
2019-03-25T06:26:07.589Z,1014.81
2019-03-25T06:27:14.011Z,1014.79
2019-03-25T06:28:08.565Z,1014.82
2019-03-25T06:29:07.578Z,1014.77
2019-03-25T06:30:07.544Z,1014.83
2019-03-25T06:31:07.627Z,1014.88
2019-03-25T06:32:14.546Z,1014.83
2019-03-25T06:33:15.040Z,1014.91
2019-03-25T06:34:07.501Z,1014.87
2019-03-25T06:35:08.957Z,1014.83
2019-03-25T06:36:07.483Z,1014.89
2019-03-25T06:37:07.468Z,1014.96
2019-03-25T06:38:07.456Z,1014.88
2019-03-25T06:39:07.447Z,1015.01
2019-03-25T06:40:07.463Z,1015.01
2019-03-25T06:41:07.425Z,1015.01
2019-03-25T06:42:07.417Z,1015.06
2019-03-25T06:43:07.403Z,1015.00
2019-03-25T06:44:07.397Z,1015.04
2019-03-25T06:45:07.423Z,1015.06
2019-03-25T06:46:07.567Z,1015.03
2019-03-25T06:47:07.396Z,1015.01
2019-03-25T06:48:07.360Z,1015.05
2019-03-25T06:49:07.383Z,1015.07
2019-03-25T06:50:07.324Z,1015.06
2019-03-25T06:51:07.332Z,1015.08
2019-03-25T06:52:07.306Z,1015.08
2019-03-25T06:53:07.294Z,1015.11
2019-03-25T06:54:07.282Z,1015.14
2019-03-25T06:55:07.275Z,1015.15
2019-03-25T06:56:07.276Z,1015.15
2019-03-25T06:57:24.977Z,1015.16
2019-03-25T07:00:26.175Z,1015.16
2019-03-25T07:01:33.204Z,1015.27
2019-03-25T07:02:33.703Z,1015.21
2019-03-25T07:03:33.674Z,1015.19
2019-03-25T07:04:26.132Z,1015.30
2019-03-25T07:05:26.119Z,1015.22
2019-03-25T07:06:26.130Z,1015.22
2019-03-25T07:07:26.098Z,1015.18
2019-03-25T07:08:26.087Z,1015.21
2019-03-25T07:09:26.076Z,1015.16
2019-03-25T07:10:26.072Z,1015.21
2019-03-25T07:11:26.089Z,1015.20
2019-03-25T07:12:33.066Z,1015.19
2019-03-25T07:13:26.033Z,1015.26
2019-03-25T07:14:26.022Z,1015.22
2019-03-25T07:15:26.011Z,1015.21
2019-03-25T07:16:26.006Z,1015.25
2019-03-25T07:17:35.001Z,1015.20
2019-03-25T07:18:33.518Z,1015.25
2019-03-25T07:19:32.995Z,1015.40
2019-03-25T07:20:32.981Z,1015.25
2019-03-25T07:21:34.745Z,1015.25
2019-03-25T07:22:34.657Z,1015.30
2019-03-25T07:23:34.478Z,1015.28
2019-03-25T07:24:33.457Z,1015.17
2019-03-25T07:25:32.925Z,1015.17
2019-03-25T07:26:32.921Z,1015.20
2019-03-25T07:27:37.046Z,1015.40
2019-03-25T07:28:34.427Z,1015.28
2019-03-25T07:29:33.392Z,1015.19
2019-03-25T07:30:33.074Z,1015.20
2019-03-25T07:31:33.385Z,1015.22
2019-03-25T07:32:34.428Z,1015.22
2019-03-25T07:33:33.354Z,1015.21
2019-03-25T07:34:33.454Z,1015.25
2019-03-25T07:35:32.835Z,1015.34
2019-03-25T07:36:33.815Z,1015.35
2019-03-25T07:37:25.774Z,1015.34
2019-03-25T07:38:25.780Z,1015.33
2019-03-25T07:39:25.756Z,1015.39
2019-03-25T07:40:25.744Z,1015.32
2019-03-25T07:41:25.730Z,1015.35
2019-03-25T07:42:25.718Z,1015.32
2019-03-25T07:43:25.730Z,1015.34
2019-03-25T07:44:25.702Z,1015.31
2019-03-25T07:45:25.690Z,1015.38
2019-03-25T07:46:25.682Z,1015.33
2019-03-25T07:47:25.686Z,1015.27
2019-03-25T07:48:25.676Z,1015.28
2019-03-25T07:49:25.679Z,1015.33
2019-03-25T07:50:25.648Z,1015.34
2019-03-25T07:51:25.623Z,1015.33
2019-03-25T07:52:25.618Z,1015.33
2019-03-25T07:53:25.641Z,1015.39
2019-03-25T07:54:25.591Z,1015.24
2019-03-25T07:55:25.644Z,1015.29
2019-03-25T07:56:25.597Z,1015.30
2019-03-25T07:57:25.602Z,1015.33
2019-03-25T07:58:25.562Z,1015.37
2019-03-25T07:59:25.553Z,1015.33
2019-03-25T08:00:25.524Z,1015.27
2019-03-25T08:01:25.524Z,1015.26
2019-03-25T08:02:25.518Z,1015.35
2019-03-25T08:03:25.495Z,1015.32
2019-03-25T08:04:25.518Z,1015.40
2019-03-25T08:05:25.491Z,1015.24
2019-03-25T08:06:25.487Z,1015.26
2019-03-25T08:07:25.511Z,1015.30
2019-03-25T08:08:25.452Z,1015.37
2019-03-25T08:09:25.482Z,1015.48
2019-03-25T08:10:25.418Z,1015.36
2019-03-25T08:11:25.413Z,1015.34
2019-03-25T08:12:25.428Z,1015.42
2019-03-25T08:13:25.463Z,1015.21
2019-03-25T08:14:25.380Z,1015.33
2019-03-25T08:15:25.415Z,1015.35
2019-03-25T08:16:25.351Z,1015.38
2019-03-25T08:17:25.337Z,1015.36
2019-03-25T08:18:25.327Z,1015.31
2019-03-25T08:19:25.320Z,1015.37
2019-03-25T08:20:25.323Z,1015.46
2019-03-25T08:21:25.297Z,1015.42
2019-03-25T08:22:25.288Z,1015.18
2019-03-25T08:23:25.272Z,1015.41
2019-03-25T08:24:25.262Z,1015.48
2019-03-25T08:25:25.273Z,1015.43
2019-03-25T08:26:25.243Z,1015.48
2019-03-25T08:27:25.231Z,1015.47
2019-03-25T08:28:25.221Z,1015.58
2019-03-25T08:29:25.212Z,1015.37
2019-03-25T08:30:25.241Z,1015.50
2019-03-25T08:31:32.725Z,1015.34
2019-03-25T08:32:25.179Z,1015.37
2019-03-25T08:33:25.162Z,1015.34
2019-03-25T08:34:25.155Z,1015.30
2019-03-25T08:35:25.144Z,1015.39
2019-03-25T08:36:25.149Z,1015.38
2019-03-25T08:37:25.121Z,1015.25
2019-03-25T08:38:25.109Z,1015.42
2019-03-25T08:39:25.107Z,1015.37
2019-03-25T08:40:25.095Z,1015.49
2019-03-25T08:41:25.097Z,1015.46
2019-03-25T08:42:25.066Z,1015.40
2019-03-25T08:43:25.268Z,1015.29
2019-03-25T08:44:25.067Z,1015.32
2019-03-25T08:45:25.038Z,1015.40
2019-03-25T08:46:25.048Z,1015.43
2019-03-25T08:47:25.021Z,1015.40
2019-03-25T08:48:25.005Z,1015.40
2019-03-25T08:49:24.994Z,1015.34
2019-03-25T08:50:24.979Z,1015.48
2019-03-25T08:51:24.974Z,1015.41
2019-03-25T08:52:24.998Z,1015.43
2019-03-25T08:53:24.954Z,1015.37
2019-03-25T08:54:24.936Z,1015.50
2019-03-25T08:55:24.926Z,1015.38
2019-03-25T08:56:24.914Z,1015.50
2019-03-25T08:57:24.922Z,1015.41
2019-03-25T08:58:24.897Z,1015.49
2019-03-25T08:59:24.890Z,1015.49
2019-03-25T09:00:24.875Z,1015.47
2019-03-25T09:01:24.861Z,1015.50
2019-03-25T09:02:24.883Z,1015.42
2019-03-25T09:03:24.837Z,1015.50
2019-03-25T09:04:24.828Z,1015.36
2019-03-25T09:05:24.819Z,1015.43
2019-03-25T09:06:24.809Z,1015.46
2019-03-25T09:07:24.800Z,1015.41
2019-03-25T09:08:24.804Z,1015.46
2019-03-25T09:09:24.774Z,1015.38
2019-03-25T09:10:24.762Z,1015.49
2019-03-25T09:11:24.755Z,1015.53
2019-03-25T09:12:24.746Z,1015.46
2019-03-25T09:13:24.753Z,1015.48
2019-03-25T09:14:24.734Z,1015.50
2019-03-25T09:15:24.710Z,1015.45
2019-03-25T09:16:24.706Z,1015.48
2019-03-25T09:17:24.700Z,1015.60
2019-03-25T09:18:24.694Z,1015.60
2019-03-25T09:19:24.691Z,1015.50
2019-03-25T09:20:24.666Z,1015.45
2019-03-25T09:21:24.659Z,1015.44
2019-03-25T09:22:24.635Z,1015.62
2019-03-25T09:23:24.644Z,1015.43
2019-03-25T09:24:24.616Z,1015.41
2019-03-25T09:25:24.600Z,1015.49
2019-03-25T09:26:24.590Z,1015.46
2019-03-25T09:27:24.580Z,1015.53
2019-03-25T09:28:24.829Z,1015.60
2019-03-25T09:29:24.573Z,1015.52
2019-03-25T09:30:24.546Z,1015.52
2019-03-25T09:31:36.178Z,1015.65
2019-03-25T09:32:25.527Z,1015.55
2019-03-25T09:33:24.520Z,1015.44
2019-03-25T09:34:24.523Z,1015.47
2019-03-25T09:35:24.491Z,1015.39
2019-03-25T09:36:24.496Z,1015.37
2019-03-25T09:37:24.468Z,1015.38
2019-03-25T09:38:24.469Z,1015.49
2019-03-25T09:39:24.500Z,1015.53
2019-03-25T09:40:24.444Z,1015.53
2019-03-25T09:41:24.425Z,1015.62
2019-03-25T09:42:24.419Z,1015.69
2019-03-25T09:43:24.401Z,1015.54
2019-03-25T09:44:24.393Z,1015.56
2019-03-25T09:45:24.400Z,1015.70
2019-03-25T09:46:24.377Z,1015.57
2019-03-25T09:47:24.364Z,1015.68
2019-03-25T09:48:24.353Z,1015.86
2019-03-25T09:49:24.338Z,1015.76
2019-03-25T09:50:24.347Z,1015.64
2019-03-25T09:51:24.325Z,1015.71
2019-03-25T09:52:24.330Z,1015.64
2019-03-25T09:53:24.298Z,1015.61
2019-03-25T09:54:24.288Z,1015.61
2019-03-25T09:55:24.289Z,1015.85
2019-03-25T09:56:24.268Z,1015.61
2019-03-25T09:57:24.336Z,1015.66
2019-03-25T09:58:35.336Z,1015.65
2019-03-25T09:59:25.230Z,1015.61
2019-03-25T10:00:24.243Z,1015.72
2019-03-25T10:01:24.212Z,1015.60
2019-03-25T10:02:24.195Z,1015.77
2019-03-25T10:03:24.203Z,1015.60
2019-03-25T10:04:24.204Z,1015.54
2019-03-25T10:05:24.200Z,1015.72
2019-03-25T10:06:24.179Z,1015.72
2019-03-25T10:07:24.147Z,1015.60
2019-03-25T10:08:24.143Z,1015.56
2019-03-25T10:09:24.147Z,1015.60
2019-03-25T10:10:24.109Z,1015.50
2019-03-25T10:11:24.122Z,1015.76
2019-03-25T10:12:24.088Z,1015.50
2019-03-25T10:13:24.076Z,1015.45
2019-03-25T10:14:24.068Z,1015.62
2019-03-25T10:15:24.057Z,1015.62
2019-03-25T10:16:24.070Z,1015.60
2019-03-25T10:17:24.033Z,1015.71
2019-03-25T10:18:24.021Z,1015.67
2019-03-25T10:19:24.014Z,1015.72
2019-03-25T10:20:24.010Z,1015.71
2019-03-25T10:21:24.010Z,1015.67
2019-03-25T10:22:23.982Z,1015.62
2019-03-25T10:23:23.968Z,1015.76
2019-03-25T10:24:27.858Z,1015.78
2019-03-25T10:25:24.006Z,1015.64
2019-03-25T10:26:24.005Z,1015.93
2019-03-25T10:27:23.945Z,1015.75
2019-03-25T10:28:23.917Z,1015.55
2019-03-25T10:29:23.904Z,1015.53
2019-03-25T10:30:23.892Z,1015.74
2019-03-25T10:31:23.887Z,1015.70
2019-03-25T10:32:23.946Z,1015.69
2019-03-25T10:33:23.870Z,1015.84
2019-03-25T10:34:23.849Z,1015.74
2019-03-25T10:35:23.839Z,1015.84
2019-03-25T10:36:24.018Z,1016.02
2019-03-25T10:37:23.839Z,1015.90
2019-03-25T10:38:23.801Z,1015.99
2019-03-25T10:39:23.816Z,1015.98
2019-03-25T10:40:23.790Z,1016.05
2019-03-25T10:41:23.776Z,1016.03
2019-03-25T10:42:23.784Z,1016.08
2019-03-25T10:43:23.747Z,1016.01
2019-03-25T10:44:23.737Z,1016.08
2019-03-25T10:45:23.725Z,1016.17
2019-03-25T10:46:23.725Z,1016.12
2019-03-25T10:47:23.740Z,1016.18
2019-03-25T10:48:23.712Z,1015.99
2019-03-25T10:49:23.688Z,1016.16
2019-03-25T10:50:23.671Z,1016.05
2019-03-25T10:51:23.663Z,1016.11
2019-03-25T10:52:23.656Z,1016.20
2019-03-25T10:53:23.772Z,1016.16
2019-03-25T10:54:23.674Z,1016.22
2019-03-25T10:55:23.636Z,1016.20
2019-03-25T10:56:23.607Z,1016.27
2019-03-25T10:57:23.597Z,1016.18
2019-03-25T10:58:23.618Z,1016.37
2019-03-25T10:59:23.572Z,1016.31
2019-03-25T11:00:23.586Z,1016.31
2019-03-25T11:01:23.552Z,1016.34
2019-03-25T11:02:23.542Z,1016.36
2019-03-25T11:03:23.556Z,1016.34
2019-03-25T11:04:23.519Z,1016.36
2019-03-25T11:05:23.523Z,1016.41
2019-03-25T11:06:23.499Z,1016.38
2019-03-25T11:07:23.515Z,1016.31
2019-03-25T11:08:23.476Z,1016.38
2019-03-25T11:09:23.571Z,1016.27
2019-03-25T11:10:23.456Z,1016.22
2019-03-25T11:11:23.445Z,1016.24
2019-03-25T11:12:23.433Z,1016.29
2019-03-25T11:13:23.419Z,1016.28
2019-03-25T11:14:23.446Z,1016.30
2019-03-25T11:15:23.412Z,1016.33
2019-03-25T11:16:23.389Z,1016.36
2019-03-25T11:17:23.379Z,1016.32
2019-03-25T11:18:23.365Z,1016.30
2019-03-25T11:19:23.376Z,1016.23
2019-03-25T11:20:23.343Z,1016.28
2019-03-25T11:21:23.341Z,1016.24
2019-03-25T11:22:23.330Z,1016.21
2019-03-25T11:23:23.349Z,1016.17
2019-03-25T11:24:23.324Z,1016.17
2019-03-25T11:25:23.290Z,1016.14
2019-03-25T11:26:23.280Z,1016.10
2019-03-25T11:27:23.285Z,1016.22
2019-03-25T11:28:23.262Z,1016.13
2019-03-25T11:29:23.266Z,1016.14
2019-03-25T11:30:23.239Z,1016.18
2019-03-25T11:31:23.222Z,1016.14
2019-03-25T11:32:23.212Z,1016.12
2019-03-25T11:33:23.567Z,1016.07
2019-03-25T11:34:23.192Z,1016.18
2019-03-25T11:35:23.199Z,1016.19
2019-03-25T11:36:23.180Z,1016.14
2019-03-25T11:37:23.166Z,1016.14
2019-03-25T11:38:23.146Z,1016.23
2019-03-25T11:39:23.137Z,1016.30
2019-03-25T11:40:23.149Z,1016.25
2019-03-25T11:41:23.115Z,1016.26
2019-03-25T11:42:23.108Z,1016.19
2019-03-25T11:43:23.098Z,1016.15
2019-03-25T11:44:23.088Z,1016.24
2019-03-25T11:45:23.097Z,1016.12
2019-03-25T11:46:23.069Z,1016.02
2019-03-25T11:47:23.847Z,1016.09
2019-03-25T11:48:23.039Z,1016.17
2019-03-25T11:49:23.031Z,1016.13
2019-03-25T11:50:23.015Z,1016.16
2019-03-25T11:51:23.060Z,1016.23
2019-03-25T11:52:22.993Z,1016.25
2019-03-25T11:53:22.982Z,1016.32
2019-03-25T11:54:22.970Z,1016.33
2019-03-25T11:55:22.967Z,1016.22
2019-03-25T11:56:22.973Z,1016.38
2019-03-25T11:57:22.961Z,1016.35
2019-03-25T11:58:22.927Z,1016.36
2019-03-25T11:59:22.918Z,1016.40
2019-03-25T12:00:23.400Z,1016.42
2019-03-25T12:01:22.914Z,1016.56
2019-03-25T12:02:22.883Z,1016.56
2019-03-25T12:03:22.879Z,1016.55
2019-03-25T12:04:22.864Z,1016.69
2019-03-25T12:05:22.853Z,1016.75
2019-03-25T12:06:22.872Z,1016.80
2019-03-25T12:07:22.868Z,1016.92